createdAt,value
2022-09-18T00:01:36.865Z,13.80
2022-09-18T00:04:09.189Z,13.70
2022-09-18T00:06:43.713Z,13.70
2022-09-18T00:09:15.877Z,13.80
2022-09-18T00:11:48.034Z,13.80
2022-09-18T00:14:19.595Z,13.80
2022-09-18T00:16:51.066Z,13.80
2022-09-18T00:19:22.424Z,13.80
2022-09-18T00:21:56.039Z,13.80
2022-09-18T00:24:26.816Z,13.80
2022-09-18T00:26:57.859Z,13.70
2022-09-18T00:29:28.678Z,13.80
2022-09-18T00:32:00.104Z,13.80
2022-09-18T00:34:30.909Z,13.80
2022-09-18T00:37:04.469Z,13.70
2022-09-18T00:39:35.598Z,13.70
2022-09-18T00:42:06.871Z,13.70
2022-09-18T00:44:39.449Z,13.80
2022-09-18T00:47:19.923Z,13.60
2022-09-18T00:49:52.604Z,13.70
2022-09-18T00:52:29.628Z,13.70
2022-09-18T00:55:03.570Z,13.70
2022-09-18T00:57:36.501Z,13.70
2022-09-18T01:00:10.932Z,13.70
2022-09-18T01:02:42.451Z,13.70
2022-09-18T01:05:14.936Z,13.70
2022-09-18T01:07:55.441Z,13.70
2022-09-18T01:10:33.941Z,13.70
2022-09-18T01:13:07.529Z,13.70
2022-09-18T01:15:42.857Z,13.60
2022-09-18T01:18:16.548Z,13.60
2022-09-18T01:20:54.375Z,13.60
2022-09-18T01:23:40.869Z,13.70
2022-09-18T01:26:20.688Z,13.70
2022-09-18T01:28:57.478Z,13.60
2022-09-18T01:31:31.714Z,13.70
2022-09-18T01:34:04.980Z,13.60
2022-09-18T01:36:37.247Z,13.60
2022-09-18T01:39:14.569Z,13.60
2022-09-18T01:41:50.927Z,13.60
2022-09-18T01:44:28.281Z,13.60
2022-09-18T01:47:02.719Z,13.60
2022-09-18T01:49:41.634Z,13.60
2022-09-18T01:52:13.685Z,13.60
2022-09-18T01:54:48.102Z,13.60
2022-09-18T01:57:20.918Z,13.60
2022-09-18T01:59:57.497Z,13.60
2022-09-18T02:02:32.662Z,13.50
2022-09-18T02:05:05.916Z,13.50
2022-09-18T02:07:40.348Z,13.50
2022-09-18T02:10:11.727Z,13.50
2022-09-18T02:12:44.119Z,13.50
2022-09-18T02:15:19.659Z,13.50
2022-09-18T02:17:57.752Z,13.40
2022-09-18T02:20:39.920Z,13.50
2022-09-18T02:23:11.192Z,13.50
2022-09-18T02:25:45.902Z,13.50
2022-09-18T02:28:18.331Z,13.40
2022-09-18T02:30:52.119Z,13.40
2022-09-18T02:33:30.246Z,13.50
2022-09-18T02:36:07.992Z,13.50
2022-09-18T02:38:43.208Z,13.40
2022-09-18T02:41:17.906Z,13.40
2022-09-18T02:43:56.155Z,13.30
2022-09-18T02:46:34.919Z,13.40
2022-09-18T02:49:10.512Z,13.40
2022-09-18T02:51:46.682Z,13.40
2022-09-18T02:54:22.993Z,13.50
2022-09-18T02:56:58.812Z,13.50
2022-09-18T02:59:32.080Z,13.40
2022-09-18T03:02:06.539Z,13.50
2022-09-18T03:04:39.435Z,13.40
2022-09-18T03:07:16.113Z,13.40
2022-09-18T03:09:49.478Z,13.40
2022-09-18T03:12:20.940Z,13.40
2022-09-18T03:14:52.687Z,13.40
2022-09-18T03:17:26.393Z,13.30
2022-09-18T03:19:57.159Z,13.30
2022-09-18T03:22:28.209Z,13.30
2022-09-18T03:24:58.919Z,13.30
2022-09-18T03:27:31.130Z,13.30
2022-09-18T03:30:03.580Z,13.30
2022-09-18T03:32:39.561Z,13.30
2022-09-18T03:35:12.741Z,13.30
2022-09-18T03:37:43.783Z,13.30
2022-09-18T03:40:18.841Z,13.30
2022-09-18T03:42:50.982Z,13.30
2022-09-18T03:45:22.025Z,13.40
2022-09-18T03:47:56.845Z,13.30
2022-09-18T03:50:28.502Z,13.30
2022-09-18T03:53:01.662Z,13.30
2022-09-18T03:55:56.081Z,13.30
2022-09-18T03:58:27.078Z,13.30
2022-09-18T04:01:27.857Z,13.30
2022-09-18T04:04:24.779Z,13.10
2022-09-18T04:07:08.033Z,13.20
2022-09-18T04:10:02.329Z,13.20
2022-09-18T04:12:33.269Z,13.20
2022-09-18T04:15:22.274Z,13.20
2022-09-18T04:17:53.028Z,13.20
2022-09-18T04:20:27.117Z,13.20
2022-09-18T04:23:00.677Z,13.20
2022-09-18T04:25:31.819Z,13.10
2022-09-18T04:28:02.503Z,13.20
2022-09-18T04:30:34.019Z,13.10
2022-09-18T04:33:04.787Z,13.10
2022-09-18T04:35:38.530Z,13.10
2022-09-18T04:38:14.329Z,13.10
2022-09-18T04:40:45.533Z,13.10
2022-09-18T04:43:20.510Z,13.10
2022-09-18T04:45:52.004Z,12.90
2022-09-18T04:48:22.910Z,12.90
2022-09-18T04:50:56.802Z,13.00
2022-09-18T04:53:30.469Z,13.00
2022-09-18T04:56:01.609Z,13.00
2022-09-18T04:58:38.547Z,13.10
2022-09-18T05:01:09.985Z,13.00
2022-09-18T05:03:40.870Z,13.00
2022-09-18T05:06:17.240Z,12.80
2022-09-18T05:08:48.134Z,12.80
2022-09-18T05:11:19.240Z,12.80
2022-09-18T05:13:52.601Z,12.70
2022-09-18T05:16:23.687Z,12.70
2022-09-18T05:19:12.481Z,12.90
2022-09-18T05:21:46.112Z,12.80
2022-09-18T05:24:17.696Z,12.70
2022-09-18T05:26:49.012Z,12.80
2022-09-18T05:29:23.201Z,12.70
2022-09-18T05:31:58.317Z,12.80
2022-09-18T05:34:29.712Z,12.80
2022-09-18T05:37:03.679Z,12.80
2022-09-18T05:39:34.529Z,12.90
2022-09-18T05:42:06.921Z,12.80
2022-09-18T05:44:37.686Z,12.80
2022-09-18T05:47:16.990Z,12.80
2022-09-18T05:49:47.776Z,12.80
2022-09-18T05:52:21.442Z,12.80
2022-09-18T05:54:52.196Z,12.70
2022-09-18T05:57:23.342Z,12.70
2022-09-18T05:59:54.345Z,12.80
2022-09-18T06:02:25.391Z,12.70
2022-09-18T06:05:05.192Z,12.80
2022-09-18T06:07:39.369Z,12.80
2022-09-18T06:10:10.620Z,12.80
2022-09-18T06:12:42.464Z,12.80
2022-09-18T06:15:13.529Z,12.80
2022-09-18T06:17:53.687Z,12.80
2022-09-18T06:20:24.518Z,12.80
2022-09-18T06:23:01.014Z,12.80
2022-09-18T06:25:42.196Z,12.80
2022-09-18T06:28:13.783Z,12.80
2022-09-18T06:30:44.576Z,12.90
2022-09-18T06:33:15.996Z,12.90
2022-09-18T06:35:49.238Z,12.90
2022-09-18T06:38:30.350Z,12.80
2022-09-18T06:41:01.461Z,12.70
2022-09-18T06:43:58.923Z,12.60
2022-09-18T06:46:38.182Z,12.60
2022-09-18T06:49:27.948Z,12.60
2022-09-18T06:51:58.986Z,12.60
2022-09-18T06:54:33.225Z,12.70
2022-09-18T06:57:04.726Z,12.80
2022-09-18T06:59:37.372Z,12.90
2022-09-18T07:02:19.197Z,12.80
2022-09-18T07:05:00.868Z,12.80
2022-09-18T07:07:33.223Z,12.80
2022-09-18T07:10:09.234Z,12.80
2022-09-18T07:12:48.505Z,12.80
2022-09-18T07:15:22.720Z,12.80
2022-09-18T07:17:53.708Z,12.90
2022-09-18T07:20:24.934Z,12.90
2022-09-18T07:22:56.882Z,13.00
2022-09-18T07:25:42.760Z,13.00
2022-09-18T07:28:14.442Z,13.00
2022-09-18T07:30:52.483Z,13.10
2022-09-18T07:33:24.622Z,13.10
2022-09-18T07:35:55.805Z,13.00
2022-09-18T07:38:26.457Z,13.00
2022-09-18T07:41:04.061Z,13.00
2022-09-18T07:43:37.161Z,13.00
2022-09-18T07:46:08.646Z,13.00
2022-09-18T07:48:41.722Z,13.00
2022-09-18T07:51:30.218Z,13.10
2022-09-18T07:54:03.117Z,13.00
2022-09-18T07:56:54.880Z,13.00
2022-09-18T07:59:28.623Z,13.10
2022-09-18T08:02:03.683Z,13.10
2022-09-18T08:04:36.146Z,13.10
2022-09-18T08:07:15.643Z,13.10
2022-09-18T08:10:08.197Z,13.20
2022-09-18T08:13:00.653Z,13.10
2022-09-18T08:15:51.958Z,13.10
2022-09-18T08:18:30.548Z,13.20
2022-09-18T08:21:10.669Z,13.30
2022-09-18T08:23:54.492Z,13.30
2022-09-18T08:26:25.893Z,13.30
2022-09-18T08:29:04.691Z,13.40
2022-09-18T08:31:38.622Z,13.40
2022-09-18T08:34:20.303Z,13.30
2022-09-18T08:36:52.407Z,13.40
2022-09-18T08:39:31.125Z,13.40
2022-09-18T08:42:14.188Z,13.40
2022-09-18T08:44:53.541Z,13.40
2022-09-18T08:47:32.673Z,13.40
2022-09-18T08:50:09.910Z,13.30
2022-09-18T08:52:44.470Z,13.30
2022-09-18T08:55:42.028Z,13.40
2022-09-18T08:58:48.057Z,13.50
2022-09-18T09:01:28.207Z,13.40
2022-09-18T09:04:05.307Z,13.50
2022-09-18T09:06:51.100Z,13.50
2022-09-18T09:09:34.869Z,13.50
2022-09-18T09:12:13.178Z,13.50
2022-09-18T09:14:57.441Z,13.60
2022-09-18T09:17:46.515Z,13.50
2022-09-18T09:20:24.154Z,13.50
2022-09-18T09:23:04.726Z,13.50
2022-09-18T09:25:42.405Z,13.60
2022-09-18T09:28:31.137Z,13.60
2022-09-18T09:31:25.901Z,13.60
2022-09-18T09:34:32.457Z,13.60
2022-09-18T09:37:21.387Z,13.60
2022-09-18T09:39:57.364Z,13.70
2022-09-18T09:42:32.241Z,13.70
2022-09-18T09:45:07.132Z,13.70
2022-09-18T09:47:43.730Z,13.70
2022-09-18T09:50:23.089Z,13.70
2022-09-18T09:52:56.227Z,13.80
2022-09-18T09:55:31.926Z,13.70
2022-09-18T09:58:09.547Z,13.70
2022-09-18T10:00:47.530Z,13.70
2022-09-18T10:03:28.918Z,13.70
2022-09-18T10:06:08.258Z,13.70
2022-09-18T10:08:47.401Z,13.60
2022-09-18T10:11:20.258Z,13.60
2022-09-18T10:13:59.931Z,13.50
2022-09-18T10:16:36.456Z,13.60
2022-09-18T10:19:14.759Z,13.60
2022-09-18T10:21:49.886Z,13.60
2022-09-18T10:24:25.588Z,13.70
2022-09-18T10:27:03.755Z,13.70
2022-09-18T10:29:36.332Z,13.60
2022-09-18T10:32:13.244Z,13.60
2022-09-18T10:34:51.857Z,13.60
2022-09-18T10:37:46.914Z,13.70
2022-09-18T10:40:37.607Z,13.60
2022-09-18T10:43:18.866Z,13.70
2022-09-18T10:45:55.816Z,13.80
2022-09-18T10:48:47.778Z,13.80
2022-09-18T10:51:21.018Z,13.80
2022-09-18T10:54:05.224Z,13.80
2022-09-18T10:56:57.239Z,13.80
2022-09-18T10:59:35.526Z,13.80
2022-09-18T11:02:08.006Z,13.80
2022-09-18T11:04:40.341Z,13.80
2022-09-18T11:07:13.531Z,13.90
2022-09-18T11:09:46.983Z,13.80
2022-09-18T11:12:22.296Z,13.90
2022-09-18T11:15:02.456Z,13.80
2022-09-18T11:17:35.489Z,13.80
2022-09-18T11:20:09.855Z,13.90
2022-09-18T11:22:57.996Z,14.00
2022-09-18T11:25:32.165Z,14.00
2022-09-18T11:28:30.115Z,14.00
2022-09-18T11:31:05.520Z,14.10
2022-09-18T11:33:40.456Z,14.00
2022-09-18T11:36:14.405Z,14.00
2022-09-18T11:38:46.490Z,14.00
2022-09-18T11:41:24.715Z,14.10
2022-09-18T11:44:03.179Z,14.10
2022-09-18T11:46:41.617Z,14.20
2022-09-18T11:49:14.738Z,14.20
2022-09-18T11:51:49.869Z,14.20
2022-09-18T11:54:27.220Z,14.20
2022-09-18T11:57:01.586Z,14.20
2022-09-18T11:59:42.674Z,14.10
2022-09-18T12:02:17.721Z,14.00
2022-09-18T12:04:52.381Z,14.00
2022-09-18T12:07:38.342Z,13.90
2022-09-18T12:10:17.548Z,13.90
2022-09-18T12:12:51.564Z,14.00
2022-09-18T12:15:26.998Z,14.00
2022-09-18T12:18:01.139Z,14.00
2022-09-18T12:20:34.684Z,14.00
2022-09-18T12:23:15.450Z,14.00
2022-09-18T12:25:49.470Z,14.00
2022-09-18T12:28:37.055Z,14.10
2022-09-18T12:31:14.130Z,14.00
2022-09-18T12:33:49.331Z,14.10
2022-09-18T12:36:32.337Z,14.00
2022-09-18T12:39:12.896Z,14.00
2022-09-18T12:41:53.420Z,14.10
2022-09-18T12:44:34.903Z,14.00
2022-09-18T12:47:19.727Z,14.00
2022-09-18T12:49:57.794Z,14.00
2022-09-18T12:52:34.573Z,14.00
2022-09-18T12:55:20.642Z,14.00
2022-09-18T12:57:56.119Z,14.00
2022-09-18T13:00:27.791Z,14.00
2022-09-18T13:03:04.721Z,14.00
2022-09-18T13:05:37.890Z,14.00
2022-09-18T13:08:10.705Z,13.90
2022-09-18T13:10:45.618Z,13.90
2022-09-18T13:13:19.897Z,14.00
2022-09-18T13:15:53.387Z,14.00
2022-09-18T13:18:35.298Z,14.00
2022-09-18T13:21:10.306Z,14.00
2022-09-18T13:23:44.230Z,14.00
2022-09-18T13:26:16.936Z,14.00
2022-09-18T13:28:47.853Z,13.90
2022-09-18T13:31:24.526Z,13.90
2022-09-18T13:33:59.578Z,13.90
2022-09-18T13:36:32.379Z,13.90
2022-09-18T13:39:04.664Z,13.90
2022-09-18T13:41:44.117Z,13.80
2022-09-18T13:44:21.004Z,13.80
2022-09-18T13:46:53.326Z,13.80
2022-09-18T13:49:34.529Z,13.80
2022-09-18T13:52:20.963Z,13.80
2022-09-18T13:55:03.474Z,13.80
2022-09-18T13:57:35.202Z,13.70
2022-09-18T14:00:27.237Z,13.80
2022-09-18T14:03:27.231Z,13.80
2022-09-18T14:06:01.203Z,13.80
2022-09-18T14:08:39.585Z,13.70
2022-09-18T14:11:15.318Z,13.80
2022-09-18T14:13:54.569Z,13.80
2022-09-18T14:16:43.814Z,13.80
2022-09-18T14:19:29.537Z,13.70
2022-09-18T14:22:03.856Z,13.80
2022-09-18T14:24:55.994Z,13.70
2022-09-18T14:27:35.774Z,13.70
2022-09-18T14:30:17.166Z,13.70
2022-09-18T14:32:52.335Z,13.70
2022-09-18T14:35:33.289Z,13.70
2022-09-18T14:38:18.076Z,13.60
2022-09-18T14:40:56.089Z,13.70
2022-09-18T14:43:29.830Z,13.70
2022-09-18T14:46:04.710Z,13.60
2022-09-18T14:48:39.705Z,13.60
2022-09-18T14:51:19.672Z,13.60
2022-09-18T14:53:54.269Z,13.60
2022-09-18T14:56:28.973Z,13.70
2022-09-18T14:59:01.145Z,13.60
2022-09-18T15:01:36.581Z,13.60
2022-09-18T15:04:10.118Z,13.70
2022-09-18T15:06:43.452Z,13.70
2022-09-18T15:09:18.199Z,13.60
2022-09-18T15:12:02.242Z,13.70
2022-09-18T15:14:44.021Z,13.60
2022-09-18T15:17:20.139Z,13.50
2022-09-18T15:20:01.168Z,13.50
2022-09-18T15:22:33.091Z,13.60
2022-09-18T15:25:08.072Z,13.60
2022-09-18T15:27:39.510Z,13.70
2022-09-18T15:30:16.904Z,13.50
2022-09-18T15:32:49.188Z,13.60
2022-09-18T15:35:22.196Z,13.50
2022-09-18T15:37:54.623Z,13.60
2022-09-18T15:40:31.960Z,13.60
2022-09-18T15:43:04.453Z,13.60
2022-09-18T15:45:37.197Z,13.50
2022-09-18T15:48:23.223Z,13.50
2022-09-18T15:51:09.010Z,13.60
2022-09-18T15:53:40.264Z,13.60
2022-09-18T15:56:23.957Z,13.50
2022-09-18T15:58:58.465Z,13.50
2022-09-18T16:01:35.365Z,13.60
2022-09-18T16:04:09.242Z,13.60
2022-09-18T16:06:44.334Z,13.50
2022-09-18T16:09:25.864Z,13.50
2022-09-18T16:11:59.582Z,13.50
2022-09-18T16:14:54.519Z,13.50
2022-09-18T16:17:41.007Z,13.50
2022-09-18T16:20:28.575Z,13.50
2022-09-18T16:23:01.639Z,13.60
2022-09-18T16:25:36.131Z,13.50
2022-09-18T16:28:17.979Z,13.50
2022-09-18T16:30:49.512Z,13.50
2022-09-18T16:33:22.547Z,13.40
2022-09-18T16:35:57.897Z,13.40
2022-09-18T16:38:29.304Z,13.50
2022-09-18T16:41:00.674Z,13.50
2022-09-18T16:43:36.004Z,13.50
2022-09-18T16:46:08.343Z,13.50
2022-09-18T16:48:40.046Z,13.40
2022-09-18T16:51:12.239Z,13.50
2022-09-18T16:53:44.001Z,13.50
2022-09-18T16:56:17.060Z,13.50
2022-09-18T16:58:51.080Z,13.50
2022-09-18T17:01:25.021Z,13.50
2022-09-18T17:03:59.515Z,13.50
2022-09-18T17:06:30.658Z,13.40
2022-09-18T17:09:01.981Z,13.50
2022-09-18T17:11:32.961Z,13.40
2022-09-18T17:14:06.683Z,13.40
2022-09-18T17:16:44.513Z,13.40
2022-09-18T17:19:16.640Z,13.40
2022-09-18T17:21:47.852Z,13.40
2022-09-18T17:24:24.186Z,13.30
2022-09-18T17:26:55.519Z,13.30
2022-09-18T17:29:29.891Z,13.20
2022-09-18T17:32:00.907Z,13.20
2022-09-18T17:34:32.303Z,13.10
2022-09-18T17:37:06.448Z,13.20
2022-09-18T17:39:37.847Z,13.20
2022-09-18T17:42:08.745Z,13.20
2022-09-18T17:44:42.786Z,13.20
2022-09-18T17:47:14.575Z,13.20
2022-09-18T17:49:45.973Z,13.20
2022-09-18T17:52:20.058Z,13.20
2022-09-18T17:54:51.382Z,13.20
2022-09-18T17:57:22.456Z,13.20
2022-09-18T17:59:57.439Z,13.10
2022-09-18T18:02:28.940Z,13.10
2022-09-18T18:05:00.665Z,13.00
2022-09-18T18:07:32.063Z,12.90
2022-09-18T18:10:03.632Z,12.80
2022-09-18T18:12:36.550Z,12.80
2022-09-18T18:15:11.286Z,12.90
2022-09-18T18:17:43.323Z,12.90
2022-09-18T18:20:14.989Z,12.90
2022-09-18T18:23:06.410Z,12.90
2022-09-18T18:25:39.659Z,12.90
2022-09-18T18:28:12.491Z,12.90
2022-09-18T18:30:49.015Z,13.00
2022-09-18T18:33:41.496Z,13.00
2022-09-18T18:36:14.343Z,12.90
2022-09-18T18:39:10.146Z,12.90
2022-09-18T18:41:45.039Z,12.90
2022-09-18T18:44:16.581Z,12.90
2022-09-18T18:46:51.785Z,12.90
2022-09-18T18:49:23.900Z,13.00
2022-09-18T18:51:56.400Z,13.00
2022-09-18T18:54:28.114Z,12.90
2022-09-18T18:56:59.903Z,12.90
2022-09-18T18:59:33.685Z,12.90
2022-09-18T19:02:08.119Z,12.90
2022-09-18T19:04:41.761Z,12.90
2022-09-18T19:07:13.856Z,12.90
2022-09-18T19:09:45.472Z,12.90
2022-09-18T19:12:17.268Z,12.90
2022-09-18T19:14:48.550Z,12.90
2022-09-18T19:17:23.316Z,12.90
2022-09-18T19:19:55.009Z,12.80
2022-09-18T19:22:29.360Z,12.80
2022-09-18T19:25:01.628Z,12.80
2022-09-18T19:27:33.364Z,12.80
2022-09-18T19:30:04.535Z,12.80
2022-09-18T19:32:38.557Z,12.80
2022-09-18T19:35:10.174Z,12.70
2022-09-18T19:37:42.870Z,12.70
2022-09-18T19:40:16.589Z,12.70
2022-09-18T19:42:49.294Z,12.70
2022-09-18T19:45:22.730Z,12.70
2022-09-18T19:47:56.560Z,12.70
2022-09-18T19:50:29.497Z,12.70
2022-09-18T19:53:00.509Z,12.70
2022-09-18T19:55:31.636Z,12.60
2022-09-18T19:58:03.393Z,12.60
2022-09-18T20:00:34.440Z,12.50
2022-09-18T20:03:08.708Z,12.50
2022-09-18T20:05:40.207Z,12.50
2022-09-18T20:08:11.538Z,12.40
2022-09-18T20:10:43.173Z,12.30
2022-09-18T20:13:14.341Z,12.40
2022-09-18T20:15:45.623Z,12.40
2022-09-18T20:18:19.273Z,12.30
2022-09-18T20:20:51.567Z,12.40
2022-09-18T20:23:22.653Z,12.40
2022-09-18T20:25:53.310Z,12.40
2022-09-18T20:28:24.401Z,12.40
2022-09-18T20:30:55.225Z,12.50
2022-09-18T20:33:28.889Z,12.40
2022-09-18T20:36:00.449Z,12.40
2022-09-18T20:38:32.748Z,12.40
2022-09-18T20:41:06.778Z,12.40
2022-09-18T20:43:39.863Z,12.40
2022-09-18T20:46:14.398Z,12.30
2022-09-18T20:48:55.195Z,12.30
2022-09-18T20:51:27.063Z,12.30
2022-09-18T20:53:59.126Z,12.30
2022-09-18T20:56:32.715Z,12.30
2022-09-18T20:59:05.156Z,12.30
2022-09-18T21:01:38.093Z,12.30
2022-09-18T21:04:17.166Z,12.20
2022-09-18T21:06:48.851Z,12.30
2022-09-18T21:09:19.865Z,12.20
2022-09-18T21:11:50.595Z,12.20
2022-09-18T21:14:24.239Z,12.20
2022-09-18T21:16:55.376Z,12.20
2022-09-18T21:19:29.668Z,12.20
2022-09-18T21:22:00.384Z,12.10
2022-09-18T21:24:32.443Z,12.10
2022-09-18T21:27:03.189Z,12.10
2022-09-18T21:29:34.213Z,12.10
2022-09-18T21:32:06.327Z,12.10
2022-09-18T21:34:40.421Z,12.10
2022-09-18T21:37:11.262Z,12.10
2022-09-18T21:39:44.199Z,12.20
2022-09-18T21:42:16.938Z,12.10
2022-09-18T21:44:47.944Z,12.10
2022-09-18T21:47:18.692Z,12.20
2022-09-18T21:49:52.339Z,12.20
2022-09-18T21:52:23.048Z,12.10
2022-09-18T21:54:54.026Z,12.20
2022-09-18T21:57:24.764Z,12.20
2022-09-18T21:59:56.313Z,12.20
2022-09-18T22:02:27.454Z,12.20
2022-09-18T22:05:01.361Z,12.10
2022-09-18T22:07:32.652Z,12.20
2022-09-18T22:10:03.737Z,12.20
2022-09-18T22:12:36.552Z,12.10
2022-09-18T22:15:07.967Z,12.10
2022-09-18T22:17:39.344Z,12.00
2022-09-18T22:20:13.118Z,12.10
2022-09-18T22:22:43.819Z,12.00
2022-09-18T22:25:15.525Z,12.10
2022-09-18T22:27:46.921Z,12.10
2022-09-18T22:30:17.903Z,12.10
2022-09-18T22:32:49.534Z,12.10
2022-09-18T22:35:23.122Z,12.10
2022-09-18T22:37:55.169Z,12.10
2022-09-18T22:40:26.210Z,12.20
2022-09-18T22:42:57.950Z,12.10
2022-09-18T22:45:28.924Z,12.20
2022-09-18T22:47:59.548Z,12.20
2022-09-18T22:50:33.414Z,12.20
2022-09-18T22:53:04.105Z,12.10
2022-09-18T22:55:35.741Z,12.10
2022-09-18T22:58:06.477Z,12.20
2022-09-18T23:00:37.760Z,12.20
2022-09-18T23:03:08.590Z,12.20
2022-09-18T23:05:43.231Z,12.20
2022-09-18T23:08:14.020Z,12.20
2022-09-18T23:10:45.440Z,12.20
2022-09-18T23:13:16.341Z,12.20
2022-09-18T23:15:47.338Z,12.30
2022-09-18T23:18:18.637Z,12.30
2022-09-18T23:20:52.219Z,12.20
2022-09-18T23:23:22.941Z,12.20
2022-09-18T23:25:54.101Z,12.20
2022-09-18T23:28:24.928Z,12.20
2022-09-18T23:30:55.880Z,12.20
2022-09-18T23:33:26.564Z,12.10
2022-09-18T23:36:06.568Z,12.10
2022-09-18T23:38:37.334Z,12.20
2022-09-18T23:41:09.179Z,12.10
2022-09-18T23:43:40.171Z,12.10
2022-09-18T23:46:11.337Z,12.10
2022-09-18T23:48:42.175Z,12.10
2022-09-18T23:51:16.275Z,12.10
2022-09-18T23:53:47.068Z,12.20
2022-09-18T23:56:18.759Z,12.20
2022-09-18T23:58:49.589Z,12.20
